sensor_id;sensor_type;location;lat;lon;timestamp;P1;durP1;ratioP1;P2;durP2;ratioP2
51491;SDS011;37569;50.548;8.778;2023-12-20T00:00:56;4.9;;;3;;
51491;SDS011;37569;50.548;8.778;2023-12-20T00:05:56;4.2;;;3.2;;
51491;SDS011;37569;50.548;8.778;2023-12-20T00:10:56;3.7;;;3;;
51491;SDS011;37569;50.548;8.778;2023-12-20T00:15:57;3.5;;;2.9;;
51491;SDS011;37569;50.548;8.778;2023-12-20T00:20:57;3.9;;;2.8;;
51491;SDS011;37569;50.548;8.778;2023-12-20T00:25:57;3.9;;;2.7;;
51491;SDS011;37569;50.548;8.778;2023-12-20T00:30:58;3.3;;;2.6;;
51491;SDS011;37569;50.548;8.778;2023-12-20T00:35:58;4.2;;;2.2;;
51491;SDS011;37569;50.548;8.778;2023-12-20T00:40:58;3.6;;;2.4;;
51491;SDS011;37569;50.548;8.778;2023-12-20T00:45:59;3.2;;;2.6;;
51491;SDS011;37569;50.548;8.778;2023-12-20T00:50:59;4.2;;;2.6;;
51491;SDS011;37569;50.548;8.778;2023-12-20T00:55:59;2.8;;;2.2;;
51491;SDS011;37569;50.548;8.778;2023-12-20T01:00:59;3.2;;;2.2;;
51491;SDS011;37569;50.548;8.778;2023-12-20T01:06:00;3.8;;;2.3;;
51491;SDS011;37569;50.548;8.778;2023-12-20T01:11:00;3.1;;;2.1;;
51491;SDS011;37569;50.548;8.778;2023-12-20T01:16:00;2.7;;;2.2;;
51491;SDS011;37569;50.548;8.778;2023-12-20T01:21:01;2.4;;;2.2;;
51491;SDS011;37569;50.548;8.778;2023-12-20T01:26:01;3.8;;;2.3;;
51491;SDS011;37569;50.548;8.778;2023-12-20T01:31:01;2.7;;;2.2;;
51491;SDS011;37569;50.548;8.778;2023-12-20T01:36:02;3.7;;;2.3;;
51491;SDS011;37569;50.548;8.778;2023-12-20T01:41:02;3.1;;;2.5;;
51491;SDS011;37569;50.548;8.778;2023-12-20T01:46:02;3;;;2.4;;
51491;SDS011;37569;50.548;8.778;2023-12-20T01:51:03;3.9;;;2.7;;
51491;SDS011;37569;50.548;8.778;2023-12-20T01:56:03;3.3;;;2.4;;
51491;SDS011;37569;50.548;8.778;2023-12-20T02:01:03;3.6;;;2.4;;
51491;SDS011;37569;50.548;8.778;2023-12-20T02:06:04;3.7;;;2.6;;
51491;SDS011;37569;50.548;8.778;2023-12-20T02:11:04;3.3;;;3;;
51491;SDS011;37569;50.548;8.778;2023-12-20T02:16:04;4.2;;;2.7;;
51491;SDS011;37569;50.548;8.778;2023-12-20T02:21:04;3.7;;;3;;
51491;SDS011;37569;50.548;8.778;2023-12-20T02:26:05;3.8;;;3.1;;
51491;SDS011;37569;50.548;8.778;2023-12-20T02:31:05;4.7;;;2.7;;
51491;SDS011;37569;50.548;8.778;2023-12-20T02:36:06;4.1;;;3.2;;
51491;SDS011;37569;50.548;8.778;2023-12-20T02:41:06;3.4;;;2.8;;
51491;SDS011;37569;50.548;8.778;2023-12-20T02:46:06;3.8;;;3.1;;
51491;SDS011;37569;50.548;8.778;2023-12-20T02:51:06;3.3;;;2.6;;
51491;SDS011;37569;50.548;8.778;2023-12-20T02:56:07;3.4;;;3.1;;
51491;SDS011;37569;50.548;8.778;2023-12-20T03:01:07;4;;;3.2;;
51491;SDS011;37569;50.548;8.778;2023-12-20T03:06:07;3.3;;;2.8;;
51491;SDS011;37569;50.548;8.778;2023-12-20T03:11:08;4.3;;;3.3;;
51491;SDS011;37569;50.548;8.778;2023-12-20T03:16:08;2.6;;;2.4;;
51491;SDS011;37569;50.548;8.778;2023-12-20T03:21:08;3.8;;;3;;
51491;SDS011;37569;50.548;8.778;2023-12-20T03:26:09;3.5;;;2.8;;
51491;SDS011;37569;50.548;8.778;2023-12-20T03:31:09;4;;;2.7;;
51491;SDS011;37569;50.548;8.778;2023-12-20T03:36:09;3.4;;;2.5;;
51491;SDS011;37569;50.548;8.778;2023-12-20T03:41:10;3;;;2.7;;
51491;SDS011;37569;50.548;8.778;2023-12-20T03:46:10;3.9;;;2.7;;
51491;SDS011;37569;50.548;8.778;2023-12-20T03:51:10;3.8;;;2.6;;
51491;SDS011;37569;50.548;8.778;2023-12-20T03:56:11;4.8;;;2.7;;
51491;SDS011;37569;50.548;8.778;2023-12-20T04:01:11;4.2;;;2.8;;
51491;SDS011;37569;50.548;8.778;2023-12-20T04:06:16;3.8;;;3;;
51491;SDS011;37569;50.548;8.778;2023-12-20T04:11:12;4.1;;;2.9;;
51491;SDS011;37569;50.548;8.778;2023-12-20T04:16:12;4.1;;;3;;
51491;SDS011;37569;50.548;8.778;2023-12-20T04:21:12;4.5;;;2.9;;
51491;SDS011;37569;50.548;8.778;2023-12-20T04:26:13;4.9;;;3;;
51491;SDS011;37569;50.548;8.778;2023-12-20T04:31:13;5.2;;;3.2;;
51491;SDS011;37569;50.548;8.778;2023-12-20T04:36:13;6.1;;;3.2;;
51491;SDS011;37569;50.548;8.778;2023-12-20T04:41:13;9.1;;;3.8;;
51491;SDS011;37569;50.548;8.778;2023-12-20T04:46:14;6.2;;;3.9;;
51491;SDS011;37569;50.548;8.778;2023-12-20T04:51:14;6.4;;;4.5;;
51491;SDS011;37569;50.548;8.778;2023-12-20T04:56:14;9.7;;;5.7;;
51491;SDS011;37569;50.548;8.778;2023-12-20T05:01:15;12.4;;;6.5;;
51491;SDS011;37569;50.548;8.778;2023-12-20T05:06:15;10.9;;;6.8;;
51491;SDS011;37569;50.548;8.778;2023-12-20T05:11:15;12.6;;;7.7;;
51491;SDS011;37569;50.548;8.778;2023-12-20T05:16:16;12.4;;;7.5;;
51491;SDS011;37569;50.548;8.778;2023-12-20T05:21:16;11.6;;;7.6;;
51491;SDS011;37569;50.548;8.778;2023-12-20T05:26:16;11.1;;;6.2;;
51491;SDS011;37569;50.548;8.778;2023-12-20T05:31:17;9.9;;;6.2;;
51491;SDS011;37569;50.548;8.778;2023-12-20T05:36:17;11.2;;;5.9;;
51491;SDS011;37569;50.548;8.778;2023-12-20T05:41:17;10.5;;;5.5;;
51491;SDS011;37569;50.548;8.778;2023-12-20T05:46:18;11.7;;;6.2;;
51491;SDS011;37569;50.548;8.778;2023-12-20T05:51:18;10.6;;;5.8;;
51491;SDS011;37569;50.548;8.778;2023-12-20T05:56:18;7.9;;;4.5;;
51491;SDS011;37569;50.548;8.778;2023-12-20T06:01:18;9;;;4.2;;
51491;SDS011;37569;50.548;8.778;2023-12-20T06:06:19;8.2;;;4;;
51491;SDS011;37569;50.548;8.778;2023-12-20T06:11:19;9.6;;;4.3;;
51491;SDS011;37569;50.548;8.778;2023-12-20T06:16:19;9.1;;;4.7;;
51491;SDS011;37569;50.548;8.778;2023-12-20T06:21:20;10.2;;;4.1;;
51491;SDS011;37569;50.548;8.778;2023-12-20T06:26:20;13.8;;;7.8;;
51491;SDS011;37569;50.548;8.778;2023-12-20T06:31:20;11.9;;;5.4;;
51491;SDS011;37569;50.548;8.778;2023-12-20T06:36:21;12.1;;;5.1;;
51491;SDS011;37569;50.548;8.778;2023-12-20T06:41:21;9.9;;;4.6;;
51491;SDS011;37569;50.548;8.778;2023-12-20T06:46:21;10.3;;;4.9;;
51491;SDS011;37569;50.548;8.778;2023-12-20T06:51:21;11.7;;;5.2;;
51491;SDS011;37569;50.548;8.778;2023-12-20T06:56:22;11.1;;;5.5;;
51491;SDS011;37569;50.548;8.778;2023-12-20T07:01:22;12.3;;;5;;
51491;SDS011;37569;50.548;8.778;2023-12-20T07:06:22;12.7;;;4.9;;
51491;SDS011;37569;50.548;8.778;2023-12-20T07:11:22;11.3;;;5;;
51491;SDS011;37569;50.548;8.778;2023-12-20T07:16:23;23.9;;;7.9;;
51491;SDS011;37569;50.548;8.778;2023-12-20T07:21:23;13.1;;;4.3;;
51491;SDS011;37569;50.548;8.778;2023-12-20T07:26:23;11.6;;;4.4;;
51491;SDS011;37569;50.548;8.778;2023-12-20T07:31:24;12.7;;;4.4;;
51491;SDS011;37569;50.548;8.778;2023-12-20T07:36:24;12.2;;;4.3;;
51491;SDS011;37569;50.548;8.778;2023-12-20T07:41:24;11.4;;;4.2;;
51491;SDS011;37569;50.548;8.778;2023-12-20T07:46:25;8.6;;;4.2;;
51491;SDS011;37569;50.548;8.778;2023-12-20T07:51:25;10.1;;;5;;
51491;SDS011;37569;50.548;8.778;2023-12-20T07:56:25;12.6;;;4.6;;
51491;SDS011;37569;50.548;8.778;2023-12-20T08:01:25;13.2;;;4.6;;
51491;SDS011;37569;50.548;8.778;2023-12-20T08:06:26;16;;;4.7;;
51491;SDS011;37569;50.548;8.778;2023-12-20T08:11:26;10.9;;;4.5;;
51491;SDS011;37569;50.548;8.778;2023-12-20T08:16:26;11.6;;;3.9;;
51491;SDS011;37569;50.548;8.778;2023-12-20T08:21:27;15.9;;;4.5;;
51491;SDS011;37569;50.548;8.778;2023-12-20T08:26:27;15.2;;;4.5;;
51491;SDS011;37569;50.548;8.778;2023-12-20T08:31:27;10.6;;;4.3;;
51491;SDS011;37569;50.548;8.778;2023-12-20T08:36:27;13.2;;;3.9;;
51491;SDS011;37569;50.548;8.778;2023-12-20T08:41:28;12.7;;;4.2;;
51491;SDS011;37569;50.548;8.778;2023-12-20T08:46:28;10.7;;;3.5;;
51491;SDS011;37569;50.548;8.778;2023-12-20T08:51:28;7.2;;;3.2;;
51491;SDS011;37569;50.548;8.778;2023-12-20T08:56:29;12.4;;;4.3;;
51491;SDS011;37569;50.548;8.778;2023-12-20T09:01:29;11.3;;;4.5;;
51491;SDS011;37569;50.548;8.778;2023-12-20T09:06:29;8.1;;;3.6;;
51491;SDS011;37569;50.548;8.778;2023-12-20T09:11:29;10.2;;;3.9;;
51491;SDS011;37569;50.548;8.778;2023-12-20T09:16:30;16.1;;;6.2;;
51491;SDS011;37569;50.548;8.778;2023-12-20T09:21:30;9.1;;;4.3;;
51491;SDS011;37569;50.548;8.778;2023-12-20T09:26:30;12.4;;;3.9;;
51491;SDS011;37569;50.548;8.778;2023-12-20T09:31:31;14.1;;;5;;
51491;SDS011;37569;50.548;8.778;2023-12-20T09:36:31;10.5;;;4.3;;
51491;SDS011;37569;50.548;8.778;2023-12-20T09:41:32;10.6;;;4;;
51491;SDS011;37569;50.548;8.778;2023-12-20T09:46:32;10.8;;;4;;
51491;SDS011;37569;50.548;8.778;2023-12-20T09:51:32;9.6;;;4.1;;
51491;SDS011;37569;50.548;8.778;2023-12-20T09:56:32;13.7;;;3.8;;
51491;SDS011;37569;50.548;8.778;2023-12-20T10:01:33;10.3;;;4;;
51491;SDS011;37569;50.548;8.778;2023-12-20T10:06:33;10.5;;;4.2;;
51491;SDS011;37569;50.548;8.778;2023-12-20T10:11:34;8.4;;;3.3;;
51491;SDS011;37569;50.548;8.778;2023-12-20T10:16:34;10.1;;;3.2;;
51491;SDS011;37569;50.548;8.778;2023-12-20T10:21:34;9.3;;;3.9;;
51491;SDS011;37569;50.548;8.778;2023-12-20T10:26:34;10.1;;;3.2;;
51491;SDS011;37569;50.548;8.778;2023-12-20T10:31:35;9.2;;;3.2;;
51491;SDS011;37569;50.548;8.778;2023-12-20T10:36:35;8.7;;;3.4;;
51491;SDS011;37569;50.548;8.778;2023-12-20T10:41:35;9.8;;;3.4;;
51491;SDS011;37569;50.548;8.778;2023-12-20T10:46:36;10.6;;;3.8;;
51491;SDS011;37569;50.548;8.778;2023-12-20T10:51:36;8.7;;;3.2;;
51491;SDS011;37569;50.548;8.778;2023-12-20T10:56:37;9.6;;;3.2;;
51491;SDS011;37569;50.548;8.778;2023-12-20T11:01:37;9.3;;;3.5;;
51491;SDS011;37569;50.548;8.778;2023-12-20T11:06:40;9.5;;;3.7;;
51491;SDS011;37569;50.548;8.778;2023-12-20T11:11:41;10.1;;;3.9;;
51491;SDS011;37569;50.548;8.778;2023-12-20T11:16:38;9;;;3.4;;
51491;SDS011;37569;50.548;8.778;2023-12-20T11:21:39;11.2;;;3.1;;
51491;SDS011;37569;50.548;8.778;2023-12-20T11:26:39;7.7;;;3.1;;
51491;SDS011;37569;50.548;8.778;2023-12-20T11:31:39;9.2;;;2.6;;
51491;SDS011;37569;50.548;8.778;2023-12-20T11:36:40;7.6;;;2.8;;
51491;SDS011;37569;50.548;8.778;2023-12-20T11:41:40;7.7;;;2.5;;
51491;SDS011;37569;50.548;8.778;2023-12-20T11:46:40;7.1;;;2.7;;
51491;SDS011;37569;50.548;8.778;2023-12-20T11:51:41;7.6;;;2.6;;
51491;SDS011;37569;50.548;8.778;2023-12-20T11:56:41;8;;;2.8;;
51491;SDS011;37569;50.548;8.778;2023-12-20T12:01:47;8.1;;;3.1;;
51491;SDS011;37569;50.548;8.778;2023-12-20T12:06:42;10.9;;;3.4;;
51491;SDS011;37569;50.548;8.778;2023-12-20T12:11:42;10;;;3.5;;
51491;SDS011;37569;50.548;8.778;2023-12-20T12:16:42;8.1;;;3.3;;
51491;SDS011;37569;50.548;8.778;2023-12-20T12:21:43;6.8;;;2.9;;
51491;SDS011;37569;50.548;8.778;2023-12-20T12:26:49;9;;;3.5;;
51491;SDS011;37569;50.548;8.778;2023-12-20T12:31:43;9.8;;;3.6;;
51491;SDS011;37569;50.548;8.778;2023-12-20T12:36:44;8.3;;;3.4;;
51491;SDS011;37569;50.548;8.778;2023-12-20T12:41:44;10.1;;;4;;
51491;SDS011;37569;50.548;8.778;2023-12-20T12:46:45;9.3;;;3.6;;
51491;SDS011;37569;50.548;8.778;2023-12-20T12:51:45;10.7;;;3.3;;
51491;SDS011;37569;50.548;8.778;2023-12-20T12:56:45;8.1;;;3.2;;
51491;SDS011;37569;50.548;8.778;2023-12-20T13:01:45;9.3;;;3.3;;
51491;SDS011;37569;50.548;8.778;2023-12-20T13:06:46;9.6;;;3;;
51491;SDS011;37569;50.548;8.778;2023-12-20T13:11:46;5.9;;;2.9;;
51491;SDS011;37569;50.548;8.778;2023-12-20T13:16:47;9.6;;;3.5;;
51491;SDS011;37569;50.548;8.778;2023-12-20T13:21:47;15.9;;;3.6;;
51491;SDS011;37569;50.548;8.778;2023-12-20T13:26:47;7;;;3.3;;
51491;SDS011;37569;50.548;8.778;2023-12-20T13:31:48;5.7;;;3.1;;
51491;SDS011;37569;50.548;8.778;2023-12-20T13:36:48;8.6;;;3.2;;
51491;SDS011;37569;50.548;8.778;2023-12-20T13:41:48;8;;;3.1;;
51491;SDS011;37569;50.548;8.778;2023-12-20T13:46:49;8.4;;;3;;
51491;SDS011;37569;50.548;8.778;2023-12-20T13:51:49;8.5;;;3.2;;
51491;SDS011;37569;50.548;8.778;2023-12-20T13:56:50;6.4;;;2.9;;
51491;SDS011;37569;50.548;8.778;2023-12-20T14:01:50;10.6;;;3.4;;
51491;SDS011;37569;50.548;8.778;2023-12-20T14:06:50;6.2;;;3;;
51491;SDS011;37569;50.548;8.778;2023-12-20T14:11:51;9.8;;;4.1;;
51491;SDS011;37569;50.548;8.778;2023-12-20T14:16:51;8.9;;;3.9;;
51491;SDS011;37569;50.548;8.778;2023-12-20T14:21:51;8.2;;;3.2;;
51491;SDS011;37569;50.548;8.778;2023-12-20T14:26:52;12.1;;;4.6;;
51491;SDS011;37569;50.548;8.778;2023-12-20T14:31:52;12.8;;;6.2;;
51491;SDS011;37569;50.548;8.778;2023-12-20T14:36:52;11.4;;;4.9;;
51491;SDS011;37569;50.548;8.778;2023-12-20T14:41:53;7.9;;;4.5;;
51491;SDS011;37569;50.548;8.778;2023-12-20T14:46:53;9.8;;;4.4;;
51491;SDS011;37569;50.548;8.778;2023-12-20T14:51:53;6.7;;;3.7;;
51491;SDS011;37569;50.548;8.778;2023-12-20T14:56:54;8.2;;;3.9;;
51491;SDS011;37569;50.548;8.778;2023-12-20T15:01:54;8.4;;;3.7;;
51491;SDS011;37569;50.548;8.778;2023-12-20T15:06:54;7.8;;;3.9;;
51491;SDS011;37569;50.548;8.778;2023-12-20T15:11:55;7;;;3.3;;
51491;SDS011;37569;50.548;8.778;2023-12-20T15:16:55;5.9;;;3;;
51491;SDS011;37569;50.548;8.778;2023-12-20T15:21:56;8.6;;;3.4;;
51491;SDS011;37569;50.548;8.778;2023-12-20T15:26:56;9.6;;;3.5;;
51491;SDS011;37569;50.548;8.778;2023-12-20T15:31:56;7.8;;;3.2;;
51491;SDS011;37569;50.548;8.778;2023-12-20T15:36:57;6.2;;;3.2;;
51491;SDS011;37569;50.548;8.778;2023-12-20T15:41:57;6.4;;;2.6;;
51491;SDS011;37569;50.548;8.778;2023-12-20T15:46:57;8.1;;;3.1;;
51491;SDS011;37569;50.548;8.778;2023-12-20T15:51:58;7.9;;;2.8;;
51491;SDS011;37569;50.548;8.778;2023-12-20T15:56:58;6.4;;;2.8;;
51491;SDS011;37569;50.548;8.778;2023-12-20T16:01:59;6.1;;;2.8;;
51491;SDS011;37569;50.548;8.778;2023-12-20T16:06:59;3.6;;;2.4;;
51491;SDS011;37569;50.548;8.778;2023-12-20T16:11:59;6.1;;;2.5;;
51491;SDS011;37569;50.548;8.778;2023-12-20T16:17:00;6.6;;;2.2;;
51491;SDS011;37569;50.548;8.778;2023-12-20T16:22:00;8.4;;;2.6;;
51491;SDS011;37569;50.548;8.778;2023-12-20T16:27:01;6.3;;;2.5;;
51491;SDS011;37569;50.548;8.778;2023-12-20T16:32:01;9.2;;;4;;
51491;SDS011;37569;50.548;8.778;2023-12-20T16:37:01;6.9;;;2.7;;
51491;SDS011;37569;50.548;8.778;2023-12-20T16:42:02;5.5;;;2.4;;
51491;SDS011;37569;50.548;8.778;2023-12-20T16:47:02;7;;;2.9;;
51491;SDS011;37569;50.548;8.778;2023-12-20T16:52:03;6.1;;;2.5;;
51491;SDS011;37569;50.548;8.778;2023-12-20T16:57:03;5.2;;;2.2;;
51491;SDS011;37569;50.548;8.778;2023-12-20T17:02:03;5.5;;;2.1;;
51491;SDS011;37569;50.548;8.778;2023-12-20T17:07:04;6.7;;;2.4;;
51491;SDS011;37569;50.548;8.778;2023-12-20T17:12:04;7;;;2.1;;
51491;SDS011;37569;50.548;8.778;2023-12-20T17:17:04;3.8;;;2.1;;
51491;SDS011;37569;50.548;8.778;2023-12-20T17:22:05;6.7;;;2.8;;
51491;SDS011;37569;50.548;8.778;2023-12-20T17:27:05;4.9;;;2.2;;
51491;SDS011;37569;50.548;8.778;2023-12-20T17:32:05;4.6;;;2.2;;
51491;SDS011;37569;50.548;8.778;2023-12-20T17:37:06;6.8;;;2.4;;
51491;SDS011;37569;50.548;8.778;2023-12-20T17:42:06;6.7;;;2.4;;
51491;SDS011;37569;50.548;8.778;2023-12-20T17:47:07;5.2;;;2.5;;
51491;SDS011;37569;50.548;8.778;2023-12-20T17:52:07;8.3;;;3.1;;
51491;SDS011;37569;50.548;8.778;2023-12-20T17:57:07;4.5;;;2.4;;
51491;SDS011;37569;50.548;8.778;2023-12-20T18:02:08;4.4;;;2.2;;
51491;SDS011;37569;50.548;8.778;2023-12-20T18:07:08;4.8;;;2.2;;
51491;SDS011;37569;50.548;8.778;2023-12-20T18:12:09;6.3;;;2.6;;
51491;SDS011;37569;50.548;8.778;2023-12-20T18:17:09;5.5;;;2.6;;
51491;SDS011;37569;50.548;8.778;2023-12-20T18:22:09;4.8;;;2.3;;
51491;SDS011;37569;50.548;8.778;2023-12-20T18:27:10;5.8;;;2.6;;
51491;SDS011;37569;50.548;8.778;2023-12-20T18:32:10;5.8;;;2.5;;
51491;SDS011;37569;50.548;8.778;2023-12-20T18:37:10;4.6;;;2.2;;
51491;SDS011;37569;50.548;8.778;2023-12-20T18:42:11;6.5;;;2.9;;
51491;SDS011;37569;50.548;8.778;2023-12-20T18:47:11;6.1;;;2.5;;
51491;SDS011;37569;50.548;8.778;2023-12-20T18:52:12;4.3;;;2.4;;
51491;SDS011;37569;50.548;8.778;2023-12-20T18:57:12;26.2;;;23.7;;
51491;SDS011;37569;50.548;8.778;2023-12-20T19:02:12;8.4;;;3.3;;
51491;SDS011;37569;50.548;8.778;2023-12-20T19:07:13;6.3;;;2.9;;
51491;SDS011;37569;50.548;8.778;2023-12-20T19:12:13;5.2;;;2.4;;
51491;SDS011;37569;50.548;8.778;2023-12-20T19:17:13;6.8;;;3.8;;
51491;SDS011;37569;50.548;8.778;2023-12-20T19:22:14;4.9;;;2.5;;
51491;SDS011;37569;50.548;8.778;2023-12-20T19:27:15;3.7;;;2.2;;
51491;SDS011;37569;50.548;8.778;2023-12-20T19:32:14;5.8;;;2.6;;
51491;SDS011;37569;50.548;8.778;2023-12-20T19:37:15;4.8;;;2.2;;
51491;SDS011;37569;50.548;8.778;2023-12-20T19:42:15;3.9;;;2.2;;
51491;SDS011;37569;50.548;8.778;2023-12-20T19:47:16;5.3;;;2.3;;
51491;SDS011;37569;50.548;8.778;2023-12-20T19:52:16;4.5;;;2.2;;
51491;SDS011;37569;50.548;8.778;2023-12-20T19:57:16;5.8;;;4;;
51491;SDS011;37569;50.548;8.778;2023-12-20T20:02:17;3.3;;;2.2;;
51491;SDS011;37569;50.548;8.778;2023-12-20T20:07:17;3.6;;;2.2;;
51491;SDS011;37569;50.548;8.778;2023-12-20T20:12:17;7.5;;;2.8;;
51491;SDS011;37569;50.548;8.778;2023-12-20T20:17:18;8.5;;;5.7;;
51491;SDS011;37569;50.548;8.778;2023-12-20T20:22:18;6;;;3.9;;
51491;SDS011;37569;50.548;8.778;2023-12-20T20:27:19;6.1;;;3.8;;
51491;SDS011;37569;50.548;8.778;2023-12-20T20:32:19;6.4;;;3;;
51491;SDS011;37569;50.548;8.778;2023-12-20T20:37:19;4.3;;;2.5;;
51491;SDS011;37569;50.548;8.778;2023-12-20T20:42:20;5.8;;;2.2;;
51491;SDS011;37569;50.548;8.778;2023-12-20T20:47:20;4;;;1.7;;
51491;SDS011;37569;50.548;8.778;2023-12-20T20:52:20;2.5;;;1.7;;
51491;SDS011;37569;50.548;8.778;2023-12-20T20:57:21;3.9;;;1.5;;
51491;SDS011;37569;50.548;8.778;2023-12-20T21:02:21;3;;;1.5;;
51491;SDS011;37569;50.548;8.778;2023-12-20T21:07:24;2.5;;;1.5;;
51491;SDS011;37569;50.548;8.778;2023-12-20T21:12:22;2.7;;;1.5;;
51491;SDS011;37569;50.548;8.778;2023-12-20T21:17:22;3.3;;;1.7;;
51491;SDS011;37569;50.548;8.778;2023-12-20T21:22:23;3;;;1.7;;
51491;SDS011;37569;50.548;8.778;2023-12-20T21:27:23;3.8;;;1.9;;
51491;SDS011;37569;50.548;8.778;2023-12-20T21:32:23;4;;;1.6;;
51491;SDS011;37569;50.548;8.778;2023-12-20T21:37:24;3.3;;;1.6;;
51491;SDS011;37569;50.548;8.778;2023-12-20T21:42:24;3.6;;;1.4;;
51491;SDS011;37569;50.548;8.778;2023-12-20T21:47:24;3.3;;;1.6;;
51491;SDS011;37569;50.548;8.778;2023-12-20T21:52:25;2.8;;;1.5;;
51491;SDS011;37569;50.548;8.778;2023-12-20T21:57:25;2.1;;;1.5;;
51491;SDS011;37569;50.548;8.778;2023-12-20T22:02:26;3.6;;;1.4;;
51491;SDS011;37569;50.548;8.778;2023-12-20T22:07:26;4.1;;;1.8;;
51491;SDS011;37569;50.548;8.778;2023-12-20T22:12:26;3;;;1.5;;
51491;SDS011;37569;50.548;8.778;2023-12-20T22:17:27;2.6;;;1.4;;
51491;SDS011;37569;50.548;8.778;2023-12-20T22:22:27;2.5;;;1.5;;
51491;SDS011;37569;50.548;8.778;2023-12-20T22:27:27;2.9;;;1.5;;
51491;SDS011;37569;50.548;8.778;2023-12-20T22:32:28;3.3;;;1.5;;
51491;SDS011;37569;50.548;8.778;2023-12-20T22:37:28;1.9;;;1.2;;
51491;SDS011;37569;50.548;8.778;2023-12-20T22:42:28;2.8;;;1.6;;
51491;SDS011;37569;50.548;8.778;2023-12-20T22:47:29;3.5;;;1.4;;
51491;SDS011;37569;50.548;8.778;2023-12-20T22:52:29;2.6;;;1.3;;
51491;SDS011;37569;50.548;8.778;2023-12-20T22:57:30;2.9;;;1.5;;
51491;SDS011;37569;50.548;8.778;2023-12-20T23:02:30;3;;;1.4;;
51491;SDS011;37569;50.548;8.778;2023-12-20T23:07:30;2.7;;;1.3;;
51491;SDS011;37569;50.548;8.778;2023-12-20T23:12:31;1.9;;;1.3;;
51491;SDS011;37569;50.548;8.778;2023-12-20T23:17:31;3;;;1.2;;
51491;SDS011;37569;50.548;8.778;2023-12-20T23:22:32;2.4;;;1.3;;
51491;SDS011;37569;50.548;8.778;2023-12-20T23:27:32;2;;;1.2;;
51491;SDS011;37569;50.548;8.778;2023-12-20T23:32:32;3.4;;;1.4;;
51491;SDS011;37569;50.548;8.778;2023-12-20T23:37:33;2.3;;;1.3;;
51491;SDS011;37569;50.548;8.778;2023-12-20T23:42:33;1.8;;;1.2;;
51491;SDS011;37569;50.548;8.778;2023-12-20T23:47:34;2.2;;;1.1;;
51491;SDS011;37569;50.548;8.778;2023-12-20T23:52:34;2.2;;;1.2;;
51491;SDS011;37569;50.548;8.778;2023-12-20T23:57:34;1.7;;;1.2;;
